Airfield :
LOGIN :

Register | Disclaimer

   EN    FR    IT 

 










Legend :    VFR   Marginal VFR   IFR   Intensive IFR   Very Intensive IFR
Visi :
Ceiling :
>= 8 km
>= 3000ft
5 to 8 km
1000 to 3000 ft
1500m to 5 km
500 to 1000 ft
800 to 1500m
200 to 500 ft
< 800m
< 200 ft
Symbols :   Thunderstorms  Fog  Heavy snow  Heavy precipitations  Wind > 20 kt
SIGMETs :     Misc.  Thunderstorms  Icing  Turbulence  Mountain Waves  Volcanic Ashes






- Airport Elevation : 499 ft
- IATA code : TLS


LFBO - Toulouse / Blagnac

CURRENT METAR :
  • 151230Z AUTO 09005KT 010V130 9999 BKN024 BKN030 OVC086 10/04 Q0999 NOSIG

EXPIRED METARs :
  • 151200Z AUTO VRB02KT 9999 FEW027 SCT094 10/05 Q0999 NOSIG
  • 151130Z AUTO 05004KT 330V110 CAVOK 08/05 Q0999
  • 151100Z AUTO 07007KT 040V110 9999 FEW044/// SCT052/// BKN078/// ///TCU 08/05 Q0999 BECMG SCT025
  • 151030Z AUTO 10005KT 9999 FEW043/// SCT054/// BKN064/// ///TCU 06/04 Q0999 BECMG SCT025
  • 151000Z AUTO 00000KT 9999 ///CB 05/04 Q1000 BECMG SCT025
  • 150930Z AUTO VRB02KT 9999 SCT040 BKN056 BKN100 05/04 Q1000 NOSIG

TAF TAF LFBO
Valid from the 15 at 12:00 until the 16 at 18:00 UTC


151100Z 1512/1618 10005KT 9999 SCT035
BECMG 1515/1517 26010KT
TEMPO 1516/1519 RA BKN015 OVC030
TEMPO 1521/1605 BKN007 BKN020
BECMG 1602/1604 19005KT
BECMG 1606/1608 CAVOK
BECMG 1615/1617 26010KT BKN025
ATIS : +33 5 62 74 66 36



MET'MAP, your aeronautical weather chart ! - Copyright ORBIFLY December 2007 - Disclaimer

ORBIFLY MET'MAP TEAM :

Programming & Development : Alexandra Zaïnal
Concept & Development : Baudouin d'Aumeries
Co-Development & Prog : Marc-Olivier Méhu
Technical & hardware support : Manuel Goepfert

Contact : metmap@orbifly.com




SOURCES & CREDITS :

   NOAA